createdAt,value
2023-04-15T00:02:00.245Z,2.64
2023-04-15T00:04:27.699Z,2.57
2023-04-15T00:06:55.254Z,2.46
2023-04-15T00:09:21.823Z,2.45
2023-04-15T00:11:48.312Z,2.45
2023-04-15T00:14:14.774Z,2.41
2023-04-15T00:16:41.510Z,2.36
2023-04-15T00:19:07.969Z,2.24
2023-04-15T00:21:34.920Z,2.26
2023-04-15T00:24:01.925Z,2.24
2023-04-15T00:26:28.486Z,2.20
2023-04-15T00:28:55.180Z,2.18
2023-04-15T00:31:21.865Z,2.21
2023-04-15T00:33:48.695Z,2.19
2023-04-15T00:36:15.918Z,2.21
2023-04-15T00:38:42.491Z,2.07
2023-04-15T00:41:10.676Z,2.01
2023-04-15T00:43:37.695Z,1.93
2023-04-15T00:46:05.944Z,1.91
2023-04-15T00:48:32.636Z,1.90
2023-04-15T00:50:59.591Z,1.95
2023-04-15T00:53:26.013Z,1.89
2023-04-15T00:55:52.723Z,1.76
2023-04-15T00:58:19.713Z,1.81
2023-04-15T01:00:46.812Z,1.75
2023-04-15T01:03:14.203Z,1.67
2023-04-15T01:05:41.975Z,1.68
2023-04-15T01:08:08.357Z,1.58
2023-04-15T01:10:35.329Z,1.58
2023-04-15T01:13:03.640Z,1.56
2023-04-15T01:15:31.393Z,1.60
2023-04-15T01:18:03.505Z,1.54
2023-04-15T01:20:30.405Z,1.39
2023-04-15T01:22:56.915Z,1.35
2023-04-15T01:25:34.503Z,1.36
2023-04-15T01:28:01.121Z,1.36
2023-04-15T01:30:27.582Z,1.31
2023-04-15T01:32:55.006Z,1.28
2023-04-15T01:35:21.572Z,1.35
2023-04-15T01:37:48.507Z,1.40
2023-04-15T01:40:15.730Z,1.47
2023-04-15T01:42:42.244Z,1.53
2023-04-15T01:45:09.267Z,1.58
2023-04-15T01:47:36.076Z,1.66
2023-04-15T01:50:02.540Z,1.72
2023-04-15T01:52:28.965Z,1.63
2023-04-15T01:54:56.022Z,1.54
2023-04-15T01:57:22.438Z,1.58
2023-04-15T01:59:48.847Z,1.46
2023-04-15T02:02:15.828Z,1.53
2023-04-15T02:04:42.233Z,1.61
2023-04-15T02:07:08.694Z,1.55
2023-04-15T02:09:35.359Z,1.43
2023-04-15T02:12:01.885Z,1.41
2023-04-15T02:14:28.319Z,1.39
2023-04-15T02:16:55.145Z,1.34
2023-04-15T02:19:22.099Z,1.35
2023-04-15T02:21:48.521Z,1.36
2023-04-15T02:24:15.471Z,1.31
2023-04-15T02:26:41.860Z,1.35
2023-04-15T02:29:08.281Z,1.48
2023-04-15T02:31:40.794Z,1.37
2023-04-15T02:34:08.128Z,1.39
2023-04-15T02:36:34.675Z,1.43
2023-04-15T02:39:01.992Z,1.43
2023-04-15T02:41:30.046Z,1.42
2023-04-15T02:43:57.113Z,1.40
2023-04-15T02:46:24.146Z,1.48
2023-04-15T02:48:51.002Z,1.53
2023-04-15T02:51:20.106Z,1.50
2023-04-15T02:53:49.970Z,1.46
2023-04-15T02:56:17.265Z,1.60
2023-04-15T02:58:50.933Z,1.62
2023-04-15T03:01:17.440Z,1.67
2023-04-15T03:03:44.047Z,1.69
2023-04-15T03:06:11.696Z,1.73
2023-04-15T03:08:38.161Z,1.68
2023-04-15T03:11:05.009Z,1.74
2023-04-15T03:13:31.562Z,1.78
2023-04-15T03:15:58.015Z,1.85
2023-04-15T03:18:24.488Z,1.89
2023-04-15T03:20:51.637Z,1.89
2023-04-15T03:23:18.095Z,1.80
2023-04-15T03:25:45.262Z,1.76
2023-04-15T03:28:12.652Z,1.91
2023-04-15T03:30:39.023Z,1.72
2023-04-15T03:33:05.764Z,1.76
2023-04-15T03:35:32.220Z,1.69
2023-04-15T03:37:58.653Z,1.71
2023-04-15T03:40:25.789Z,1.84
2023-04-15T03:42:52.261Z,1.79
2023-04-15T03:45:18.653Z,1.75
2023-04-15T03:47:45.607Z,1.73
2023-04-15T03:50:12.427Z,1.64
2023-04-15T03:52:38.904Z,1.61
2023-04-15T03:55:06.067Z,1.55
2023-04-15T03:57:32.479Z,1.57
2023-04-15T03:59:58.877Z,1.60
2023-04-15T04:02:25.944Z,1.59
2023-04-15T04:04:53.007Z,1.53
2023-04-15T04:07:19.613Z,1.49
2023-04-15T04:09:47.454Z,1.53
2023-04-15T04:12:14.394Z,1.58
2023-04-15T04:14:41.054Z,1.56
2023-04-15T04:17:08.286Z,1.56
2023-04-15T04:19:35.557Z,1.46
2023-04-15T04:22:02.690Z,1.46
2023-04-15T04:24:29.164Z,1.46
2023-04-15T04:26:57.121Z,1.47
2023-04-15T04:29:24.187Z,1.49
2023-04-15T04:31:50.979Z,1.52
2023-04-15T04:34:17.459Z,1.60
2023-04-15T04:36:44.730Z,1.65
2023-04-15T04:39:11.168Z,1.66
2023-04-15T04:41:37.585Z,1.54
2023-04-15T04:44:04.543Z,1.33
2023-04-15T04:46:31.106Z,1.14
2023-04-15T04:48:57.505Z,1.25
2023-04-15T04:51:24.380Z,1.34
2023-04-15T04:53:50.883Z,1.71
2023-04-15T04:56:17.850Z,1.91
2023-04-15T04:58:44.623Z,1.99
2023-04-15T05:01:11.144Z,2.12
2023-04-15T05:03:38.333Z,2.14
2023-04-15T05:06:07.684Z,2.23
2023-04-15T05:08:34.508Z,2.26
2023-04-15T05:11:01.481Z,2.34
2023-04-15T05:13:27.872Z,2.47
2023-04-15T05:15:54.344Z,2.58
2023-04-15T05:18:21.462Z,2.76
2023-04-15T05:20:49.980Z,2.75
2023-04-15T05:23:17.642Z,2.85
2023-04-15T05:25:44.549Z,2.54
2023-04-15T05:28:10.937Z,2.37
2023-04-15T05:30:37.360Z,2.22
2023-04-15T05:33:04.683Z,2.15
2023-04-15T05:35:31.177Z,2.22
2023-04-15T05:37:57.567Z,2.27
2023-04-15T05:40:24.792Z,2.39
2023-04-15T05:42:51.268Z,2.40
2023-04-15T05:45:17.758Z,2.45
2023-04-15T05:47:44.704Z,2.62
2023-04-15T05:50:11.219Z,2.64
2023-04-15T05:52:37.847Z,2.68
2023-04-15T05:55:05.067Z,2.68
2023-04-15T05:57:31.757Z,3.03
2023-04-15T05:59:58.215Z,3.27
2023-04-15T06:02:25.271Z,3.34
2023-04-15T06:04:52.339Z,3.47
2023-04-15T06:07:18.779Z,3.65
2023-04-15T06:09:45.593Z,3.91
2023-04-15T06:12:12.265Z,4.12
2023-04-15T06:14:39.432Z,4.57
2023-04-15T06:17:06.554Z,4.53
2023-04-15T06:19:33.881Z,4.84
2023-04-15T06:22:00.714Z,5.28
2023-04-15T06:24:27.542Z,5.04
2023-04-15T06:26:53.978Z,5.12
2023-04-15T06:29:21.050Z,5.39
2023-04-15T06:31:48.426Z,6.35
2023-04-15T06:34:14.942Z,6.93
2023-04-15T06:36:41.775Z,7.36
2023-04-15T06:39:09.331Z,7.52
2023-04-15T06:41:36.291Z,7.27
2023-04-15T06:44:03.031Z,7.09
2023-04-15T06:46:29.763Z,6.98
2023-04-15T06:48:56.532Z,7.14
2023-04-15T06:51:25.587Z,6.36
2023-04-15T06:53:53.800Z,5.64
2023-04-15T06:56:20.510Z,5.73
2023-04-15T06:58:47.262Z,5.61
2023-04-15T07:01:14.564Z,5.29
2023-04-15T07:03:41.963Z,5.43
2023-04-15T07:06:09.446Z,5.58
2023-04-15T07:08:36.386Z,5.33
2023-04-15T07:11:02.844Z,5.47
2023-04-15T07:13:32.032Z,5.60
2023-04-15T07:15:59.208Z,5.60
2023-04-15T07:18:25.623Z,6.17
2023-04-15T07:20:52.153Z,6.14
2023-04-15T07:23:19.072Z,6.08
2023-04-15T07:25:45.520Z,6.46
2023-04-15T07:28:11.974Z,6.57
2023-04-15T07:30:38.685Z,6.77
2023-04-15T07:33:05.661Z,7.22
2023-04-15T07:35:32.092Z,8.23
2023-04-15T07:37:59.018Z,8.82
2023-04-15T07:40:25.521Z,9.53
2023-04-15T07:42:52.461Z,10.11
2023-04-15T07:45:19.238Z,10.26
2023-04-15T07:47:45.975Z,9.31
2023-04-15T07:50:12.477Z,8.91
2023-04-15T07:52:42.363Z,9.29
2023-04-15T07:55:09.540Z,9.24
2023-04-15T07:57:36.866Z,8.61
2023-04-15T08:00:08.130Z,9.76
2023-04-15T08:02:36.911Z,9.39
2023-04-15T08:05:05.131Z,9.13
2023-04-15T08:07:32.222Z,9.29
2023-04-15T08:09:58.635Z,9.49
2023-04-15T08:12:25.128Z,9.78
2023-04-15T08:14:52.496Z,10.17
2023-04-15T08:17:18.927Z,10.49
2023-04-15T08:19:45.691Z,11.05
2023-04-15T08:22:17.969Z,12.03
2023-04-15T08:24:45.085Z,12.54
2023-04-15T08:27:11.981Z,12.72
2023-04-15T08:29:38.534Z,12.03
2023-04-15T08:32:06.247Z,12.67
2023-04-15T08:34:33.062Z,13.58
2023-04-15T08:36:59.509Z,14.22
2023-04-15T08:39:26.275Z,14.65
2023-04-15T08:42:03.040Z,14.39
2023-04-15T08:44:32.037Z,14.38
2023-04-15T08:47:01.809Z,13.80
2023-04-15T08:49:29.628Z,13.92
2023-04-15T08:51:59.465Z,13.40
2023-04-15T08:54:27.554Z,12.84
2023-04-15T08:56:54.549Z,13.38
2023-04-15T08:59:24.168Z,14.00
2023-04-15T09:02:10.629Z,14.41
2023-04-15T09:04:37.459Z,13.93
2023-04-15T09:07:04.725Z,14.20
2023-04-15T09:09:31.260Z,13.78
2023-04-15T09:11:58.216Z,13.59
2023-04-15T09:14:24.747Z,13.40
2023-04-15T09:16:59.134Z,13.29
2023-04-15T09:19:26.767Z,12.44
2023-04-15T09:21:58.793Z,12.20
2023-04-15T09:24:34.024Z,12.18
2023-04-15T09:27:00.602Z,12.20
2023-04-15T09:29:27.439Z,12.95
2023-04-15T09:31:53.918Z,12.81
2023-04-15T09:34:21.091Z,13.67
2023-04-15T09:36:49.735Z,13.94
2023-04-15T09:39:17.340Z,13.67
2023-04-15T09:41:45.132Z,13.28
2023-04-15T09:44:26.239Z,13.49
2023-04-15T09:46:53.164Z,12.88
2023-04-15T09:49:20.808Z,12.65
2023-04-15T09:52:01.447Z,12.94
2023-04-15T09:54:37.395Z,12.69
2023-04-15T09:57:08.925Z,12.87
2023-04-15T09:59:35.667Z,12.27
2023-04-15T10:02:05.710Z,11.81
2023-04-15T10:04:35.481Z,11.98
2023-04-15T10:07:05.586Z,12.18
2023-04-15T10:09:33.613Z,12.69
2023-04-15T10:12:01.107Z,12.70
2023-04-15T10:14:29.939Z,12.96
2023-04-15T10:16:58.632Z,12.77
2023-04-15T10:19:27.606Z,12.56
2023-04-15T10:21:55.700Z,13.13
2023-04-15T10:24:23.803Z,13.53
2023-04-15T10:26:51.443Z,13.46
2023-04-15T10:29:19.063Z,13.52
2023-04-15T10:31:46.384Z,12.93
2023-04-15T10:34:13.583Z,13.49
2023-04-15T10:36:40.421Z,14.22
2023-04-15T10:39:33.197Z,13.92
2023-04-15T10:42:34.006Z,13.53
2023-04-15T10:45:00.491Z,13.31
2023-04-15T10:47:26.972Z,13.04
2023-04-15T10:50:02.808Z,13.53
2023-04-15T10:52:29.457Z,12.70
2023-04-15T10:55:42.719Z,13.07
2023-04-15T10:58:10.002Z,13.14
2023-04-15T11:00:39.501Z,13.46
2023-04-15T11:03:08.471Z,13.87
2023-04-15T11:05:53.606Z,13.50
2023-04-15T11:08:21.070Z,12.79
2023-04-15T11:10:47.432Z,12.33
2023-04-15T11:13:22.254Z,11.90
2023-04-15T11:15:49.559Z,11.14
2023-04-15T11:18:18.471Z,10.94
2023-04-15T11:20:46.950Z,10.20
2023-04-15T11:23:15.851Z,10.57
2023-04-15T11:25:43.873Z,10.66
2023-04-15T11:28:12.469Z,10.70
2023-04-15T11:30:40.126Z,11.04
2023-04-15T11:33:09.122Z,11.07
2023-04-15T11:35:37.044Z,11.40
2023-04-15T11:38:11.938Z,11.57
2023-04-15T11:40:39.866Z,11.82
2023-04-15T11:43:09.260Z,11.72
2023-04-15T11:45:49.887Z,12.09
2023-04-15T11:48:16.358Z,11.86
2023-04-15T11:50:42.978Z,12.55
2023-04-15T11:53:12.612Z,12.17
2023-04-15T11:55:47.392Z,12.46
2023-04-15T11:58:24.066Z,12.65
2023-04-15T12:00:55.139Z,12.39
2023-04-15T12:03:30.430Z,11.79
2023-04-15T12:06:18.907Z,11.58
2023-04-15T12:09:08.094Z,11.87
2023-04-15T12:11:37.498Z,12.23
2023-04-15T12:14:10.137Z,11.56
2023-04-15T12:16:48.879Z,11.49
2023-04-15T12:19:38.373Z,10.97
2023-04-15T12:22:15.977Z,10.69
2023-04-15T12:24:44.656Z,10.75
2023-04-15T12:27:12.791Z,10.74
2023-04-15T12:29:41.356Z,10.85
2023-04-15T12:32:27.279Z,11.50
2023-04-15T12:34:57.543Z,11.78
2023-04-15T12:37:24.010Z,11.78
2023-04-15T12:39:50.511Z,11.53
2023-04-15T12:42:18.214Z,12.24
2023-04-15T12:44:45.754Z,12.11
2023-04-15T12:47:13.082Z,12.27
2023-04-15T12:49:39.862Z,12.32
2023-04-15T12:52:07.121Z,12.46
2023-04-15T12:54:33.674Z,12.51
2023-04-15T12:57:00.917Z,12.34
2023-04-15T12:59:29.341Z,12.24
2023-04-15T13:01:56.275Z,11.39
2023-04-15T13:04:23.097Z,11.34
2023-04-15T13:06:50.339Z,11.29
2023-04-15T13:09:16.856Z,11.55
2023-04-15T13:11:43.980Z,11.53
2023-04-15T13:14:13.786Z,11.05
2023-04-15T13:16:40.410Z,11.05
2023-04-15T13:19:07.690Z,11.17
2023-04-15T13:21:35.936Z,11.38
2023-04-15T13:24:04.860Z,11.12
2023-04-15T13:26:31.930Z,10.90
2023-04-15T13:28:58.673Z,11.03
2023-04-15T13:31:25.792Z,11.04
2023-04-15T13:33:52.284Z,10.92
2023-04-15T13:36:18.728Z,10.90
2023-04-15T13:38:45.560Z,11.57
2023-04-15T13:41:11.972Z,11.32
2023-04-15T13:43:38.391Z,11.57
2023-04-15T13:46:05.347Z,11.74
2023-04-15T13:48:32.803Z,11.46
2023-04-15T13:50:59.602Z,11.09
2023-04-15T13:53:33.994Z,10.70
2023-04-15T13:56:07.476Z,10.20
2023-04-15T13:58:33.955Z,10.09
2023-04-15T14:01:01.189Z,10.08
2023-04-15T14:03:29.091Z,10.19
2023-04-15T14:05:56.940Z,10.30
2023-04-15T14:08:25.958Z,10.19
2023-04-15T14:10:52.427Z,10.00
2023-04-15T14:13:19.640Z,9.82
2023-04-15T14:15:48.018Z,10.04
2023-04-15T14:18:14.942Z,9.61
2023-04-15T14:20:41.361Z,9.67
2023-04-15T14:23:07.927Z,9.53
2023-04-15T14:25:34.765Z,9.40
2023-04-15T14:28:02.324Z,9.26
2023-04-15T14:30:29.362Z,8.86
2023-04-15T14:32:55.899Z,8.78
2023-04-15T14:35:24.499Z,8.82
2023-04-15T14:37:51.658Z,8.65
2023-04-15T14:40:18.206Z,8.76
2023-04-15T14:42:44.638Z,8.67
2023-04-15T14:45:11.568Z,8.51
2023-04-15T14:47:38.101Z,8.30
2023-04-15T14:50:04.965Z,8.25
2023-04-15T14:52:39.212Z,8.17
2023-04-15T14:55:07.651Z,8.21
2023-04-15T14:57:34.195Z,7.91
2023-04-15T15:00:01.021Z,7.79
2023-04-15T15:02:38.107Z,7.60
2023-04-15T15:05:06.237Z,7.57
2023-04-15T15:07:32.822Z,7.64
2023-04-15T15:09:59.205Z,7.50
2023-04-15T15:12:26.167Z,7.41
2023-04-15T15:14:52.650Z,7.49
2023-04-15T15:17:19.099Z,7.41
2023-04-15T15:19:46.215Z,7.32
2023-04-15T15:22:12.657Z,7.54
2023-04-15T15:24:39.058Z,7.51
2023-04-15T15:27:06.135Z,7.40
2023-04-15T15:29:32.544Z,7.73
2023-04-15T15:31:59.288Z,7.96
2023-04-15T15:34:25.753Z,8.09
2023-04-15T15:36:52.820Z,7.89
2023-04-15T15:39:19.265Z,7.96
2023-04-15T15:41:45.922Z,8.18
2023-04-15T15:44:12.344Z,8.47
2023-04-15T15:46:38.819Z,8.54
2023-04-15T15:49:06.246Z,8.44
2023-04-15T15:51:33.384Z,8.51
2023-04-15T15:53:59.836Z,8.53
2023-04-15T15:56:27.266Z,8.63
2023-04-15T15:58:53.702Z,8.70
2023-04-15T16:01:20.327Z,8.62
2023-04-15T16:03:47.510Z,8.59
2023-04-15T16:06:13.949Z,8.54
2023-04-15T16:08:40.358Z,8.31
2023-04-15T16:11:07.016Z,8.31
2023-04-15T16:13:33.624Z,8.07
2023-04-15T16:16:00.347Z,7.77
2023-04-15T16:18:26.812Z,7.91
2023-04-15T16:20:53.340Z,7.74
2023-04-15T16:23:20.860Z,7.62
2023-04-15T16:25:47.346Z,7.63
2023-04-15T16:28:25.762Z,7.52
2023-04-15T16:30:53.926Z,7.35
2023-04-15T16:33:20.432Z,7.19
2023-04-15T16:35:46.839Z,6.88
2023-04-15T16:38:13.668Z,6.81
2023-04-15T16:40:40.401Z,6.52
2023-04-15T16:43:11.402Z,6.46
2023-04-15T16:45:38.539Z,6.49
2023-04-15T16:48:05.269Z,6.42
2023-04-15T16:50:31.823Z,6.33
2023-04-15T16:52:58.803Z,6.44
2023-04-15T16:55:25.359Z,6.44
2023-04-15T16:58:01.555Z,6.50
2023-04-15T17:00:31.619Z,6.65
2023-04-15T17:02:58.883Z,6.74
2023-04-15T17:05:27.616Z,6.80
2023-04-15T17:07:54.754Z,6.76
2023-04-15T17:10:21.237Z,6.72
2023-04-15T17:12:47.738Z,6.53
2023-04-15T17:15:14.511Z,6.43
2023-04-15T17:17:41.061Z,6.32
2023-04-15T17:20:08.008Z,6.24
2023-04-15T17:22:34.950Z,6.21
2023-04-15T17:25:01.562Z,6.11
2023-04-15T17:27:29.224Z,6.12
2023-04-15T17:29:56.197Z,6.15
2023-04-15T17:32:23.526Z,6.09
2023-04-15T17:34:51.357Z,6.21
2023-04-15T17:37:18.555Z,6.06
2023-04-15T17:39:45.323Z,6.09
2023-04-15T17:42:12.499Z,6.13
2023-04-15T17:44:39.330Z,6.18
2023-04-15T17:47:05.744Z,6.11
2023-04-15T17:49:34.597Z,6.04
2023-04-15T17:52:01.131Z,6.01
2023-04-15T17:54:27.768Z,5.96
2023-04-15T17:56:54.229Z,5.86
2023-04-15T17:59:20.714Z,5.85
2023-04-15T18:01:47.185Z,5.92
2023-04-15T18:04:14.007Z,6.02
2023-04-15T18:06:40.620Z,5.89
2023-04-15T18:09:08.624Z,5.80
2023-04-15T18:11:35.693Z,5.87
2023-04-15T18:14:04.137Z,5.85
2023-04-15T18:16:31.017Z,5.88
2023-04-15T18:18:58.054Z,5.91
2023-04-15T18:21:24.436Z,5.85
2023-04-15T18:23:50.963Z,5.85
2023-04-15T18:26:18.016Z,5.88
2023-04-15T18:28:44.492Z,5.88
2023-04-15T18:31:11.109Z,5.89
2023-04-15T18:33:37.908Z,5.85
2023-04-15T18:36:04.331Z,5.91
2023-04-15T18:38:31.374Z,5.94
2023-04-15T18:40:58.665Z,5.94
2023-04-15T18:43:25.174Z,5.99
2023-04-15T18:45:53.287Z,5.92
2023-04-15T18:48:19.810Z,5.96
2023-04-15T18:50:46.316Z,5.99
2023-04-15T18:53:13.237Z,5.97
2023-04-15T18:55:40.664Z,5.94
2023-04-15T18:58:08.836Z,5.96
2023-04-15T19:00:39.189Z,5.93
2023-04-15T19:03:06.460Z,5.99
2023-04-15T19:05:33.431Z,5.92
2023-04-15T19:08:00.265Z,5.94
2023-04-15T19:10:28.087Z,5.85
2023-04-15T19:12:55.620Z,5.88
2023-04-15T19:15:22.184Z,5.88
2023-04-15T19:17:48.698Z,5.92
2023-04-15T19:20:15.651Z,5.94
2023-04-15T19:22:43.084Z,6.01
2023-04-15T19:25:09.795Z,5.95
2023-04-15T19:27:38.537Z,5.95
2023-04-15T19:30:08.149Z,5.94
2023-04-15T19:32:35.448Z,5.82
2023-04-15T19:35:02.311Z,5.94
2023-04-15T19:37:28.782Z,5.83
2023-04-15T19:39:56.052Z,5.60
2023-04-15T19:42:22.894Z,5.60
2023-04-15T19:44:49.340Z,5.61
2023-04-15T19:47:15.874Z,5.55
2023-04-15T19:49:42.724Z,5.54
2023-04-15T19:52:09.113Z,5.36
2023-04-15T19:54:36.050Z,5.54
2023-04-15T19:57:02.848Z,5.56
2023-04-15T19:59:29.256Z,5.33
2023-04-15T20:01:55.790Z,5.35
2023-04-15T20:04:23.014Z,5.29
2023-04-15T20:06:49.940Z,5.38
2023-04-15T20:09:16.539Z,5.54
2023-04-15T20:12:45.607Z,5.73
2023-04-15T20:14:30.354Z,5.82
2023-04-15T20:16:57.317Z,5.80
2023-04-15T20:19:23.765Z,5.84
2023-04-15T20:21:52.060Z,5.87
2023-04-15T20:24:20.496Z,5.82
2023-04-15T20:26:47.293Z,5.82
2023-04-15T20:29:14.326Z,5.85
2023-04-15T20:31:41.046Z,5.82
2023-04-15T20:34:08.806Z,5.70
2023-04-15T20:36:37.415Z,5.64
2023-04-15T20:39:04.097Z,5.63
2023-04-15T20:41:30.942Z,5.62
2023-04-15T20:43:57.813Z,5.63
2023-04-15T20:46:26.669Z,5.65
2023-04-15T20:48:53.687Z,5.63
2023-04-15T20:51:20.503Z,5.40
2023-04-15T20:53:47.064Z,5.48
2023-04-15T20:56:13.475Z,5.53
2023-04-15T20:58:40.339Z,5.51
2023-04-15T21:01:06.859Z,5.51
2023-04-15T21:03:33.428Z,5.46
2023-04-15T21:06:00.650Z,5.54
2023-04-15T21:08:29.228Z,5.41
2023-04-15T21:10:56.668Z,5.46
2023-04-15T21:13:24.273Z,5.32
2023-04-15T21:15:53.351Z,5.30
2023-04-15T21:18:23.801Z,5.40
2023-04-15T21:21:00.810Z,5.27
2023-04-15T21:23:29.496Z,5.34
2023-04-15T21:25:56.600Z,5.27
2023-04-15T21:28:23.729Z,5.34
2023-04-15T21:30:50.180Z,5.30
2023-04-15T21:33:17.862Z,5.33
2023-04-15T21:35:44.710Z,5.21
2023-04-15T21:38:11.281Z,5.30
2023-04-15T21:40:40.514Z,5.32
2023-04-15T21:43:08.362Z,5.33
2023-04-15T21:45:35.937Z,5.26
2023-04-15T21:48:07.744Z,5.20
2023-04-15T21:50:37.098Z,5.19
2023-04-15T21:53:04.424Z,5.27
2023-04-15T21:55:30.902Z,5.33
2023-04-15T21:57:57.750Z,5.35
2023-04-15T22:00:24.252Z,5.34
2023-04-15T22:02:51.719Z,5.33
2023-04-15T22:05:19.082Z,5.37
2023-04-15T22:07:45.639Z,5.38
2023-04-15T22:10:12.098Z,5.37
2023-04-15T22:12:42.305Z,5.34
2023-04-15T22:15:09.131Z,5.47
2023-04-15T22:17:35.669Z,5.45
2023-04-15T22:20:03.110Z,5.41
2023-04-15T22:22:44.001Z,5.31
2023-04-15T22:25:11.751Z,5.36
2023-04-15T22:27:38.362Z,5.41
2023-04-15T22:30:05.574Z,5.29
2023-04-15T22:32:32.426Z,5.09
2023-04-15T22:34:58.811Z,5.09
2023-04-15T22:37:25.553Z,4.99
2023-04-15T22:39:52.364Z,4.83
2023-04-15T22:42:19.163Z,4.75
2023-04-15T22:44:46.009Z,4.62
2023-04-15T22:47:12.463Z,4.60
2023-04-15T22:49:39.485Z,4.63
2023-04-15T22:52:07.024Z,4.68
2023-04-15T22:54:34.338Z,4.58
2023-04-15T22:57:01.492Z,4.59
2023-04-15T22:59:28.337Z,4.61
2023-04-15T23:01:55.037Z,4.62
2023-04-15T23:04:26.782Z,4.65
2023-04-15T23:06:54.399Z,4.62
2023-04-15T23:09:21.442Z,4.59
2023-04-15T23:11:47.985Z,4.68
2023-04-15T23:14:14.778Z,4.71
2023-04-15T23:16:41.402Z,4.75
2023-04-15T23:19:08.603Z,4.82
2023-04-15T23:21:35.774Z,4.72
2023-04-15T23:24:02.166Z,4.75
2023-04-15T23:26:28.961Z,4.69
2023-04-15T23:28:55.906Z,4.73
2023-04-15T23:31:22.419Z,4.80
2023-04-15T23:33:49.239Z,4.80
2023-04-15T23:36:15.632Z,4.85
2023-04-15T23:38:43.793Z,4.85
2023-04-15T23:41:12.259Z,4.79
2023-04-15T23:43:39.190Z,4.73
2023-04-15T23:46:05.633Z,4.82
2023-04-15T23:48:32.983Z,4.80
2023-04-15T23:51:00.458Z,4.74
2023-04-15T23:53:27.208Z,4.74
2023-04-15T23:55:54.059Z,4.65
2023-04-15T23:58:20.463Z,4.60
